MyWebLog Booking Liste

 

Nyhetsmelding

Klubbkveld 25.11.2014

Det blir en spennende og innholdsrik klubbkveld tirsdag den 25. november.
Vi får besøk av 2 ansatte i Norges Luftsportsforbund, Fag- og avdelingssjef Motorflyseksjonen Santiago Amengual og NLFs Aktivitetskonsulent Tom Brien.

Tema for møtet vil bl.a. bli;

    - Orientering om nytt regelverk
    - Rekruttering og miljøutvikling i flyklubben

Tid: Tirsdag 25.11.2014, kl. 18.30
Sted: Sandmoen Kurs- og Øvingssenter (Sandmoen Brannstasjon)

Vel møtt!

Kopirett © 2014 Værnes Flyklubb. Alle rettigheter reservert.
Joomla! er fri programvare utgitt under GNU/GPL License.
 

METAR

ENVA 230250Z 11005KT 080V140 CAVOK 03/M03 Q1021 RMK WIND 670FT 17023G33KT

TAF ENVA 2303/2403 10007KT CAVOK TEMPO 2303/2403 16017G27KT